Time;durP1;ratioP1;P1;durP2;ratioP2;P2;SDS_P1;SDS_P2;PMS_P1;PMS_P2;Temp;Humidity;BMP_temperature;BMP_pressure;BME280_temperature;BME280_humidity;BME280_pressure;Samples;Min_cycle;Max_cycle;Signal;HPM_P1;HPM_P2
2022/05/30 00:00:00;;;;;;;1999.90;999.90;;;11.50;94.70;;;;;;4975760;28;20027;-73
2022/05/30 00:02:26;;;;;;;1999.90;999.90;;;11.40;94.80;;;;;;4975740;28;20098;-74
2022/05/30 00:04:52;;;;;;;1999.90;999.90;;;11.40;95.00;;;;;;4964926;28;20094;-74
2022/05/30 00:07:17;;;;;;;1999.90;999.90;;;11.30;95.10;;;;;;4964256;28;20027;-74
2022/05/30 00:09:43;;;;;;;1999.90;999.90;;;11.20;95.20;;;;;;4975440;28;20034;-73
2022/05/30 00:12:09;;;;;;;1999.90;999.90;;;11.20;95.40;;;;;;4975404;28;20054;-74
2022/05/30 00:14:35;;;;;;;1999.90;999.90;;;11.10;95.60;;;;;;4962385;28;20031;-74
2022/05/30 00:17:01;;;;;;;1999.90;999.90;;;11.10;95.80;;;;;;4968366;28;20549;-72
2022/05/30 00:19:27;;;;;;;1999.90;999.90;;;11.00;96.00;;;;;;4969002;28;20146;-71
2022/05/30 00:21:55;;;;;;;1999.90;999.90;;;11.00;96.10;;;;;;4956278;28;20109;-71
2022/05/30 00:24:20;;;;;;;1999.90;999.90;;;11.00;96.20;;;;;;4980332;28;20817;-71
2022/05/30 00:26:46;;;;;;;1999.90;999.90;;;10.90;96.30;;;;;;4975481;28;20022;-74
2022/05/30 00:29:12;;;;;;;1999.90;999.90;;;10.90;96.50;;;;;;4955196;28;20019;-71
2022/05/30 00:31:38;;;;;;;1999.90;999.90;;;10.80;96.70;;;;;;4975273;28;20027;-74
2022/05/30 00:34:03;;;;;;;1999.90;999.90;;;10.80;96.80;;;;;;4975087;28;20037;-74
2022/05/30 00:36:29;;;;;;;1999.90;999.90;;;10.80;96.90;;;;;;4974570;28;20126;-74
2022/05/30 00:38:58;;;;;;;1999.90;999.90;;;10.70;97.10;;;;;;4962523;28;20027;-72
2022/05/30 00:41:26;;;;;;;1999.90;999.90;;;10.60;97.10;;;;;;4975169;28;20035;-72
2022/05/30 00:43:52;;;;;;;1999.90;999.90;;;10.60;97.30;;;;;;4963054;28;20020;-74
2022/05/30 00:46:17;;;;;;;1999.90;999.90;;;10.50;97.30;;;;;;4963271;29;20027;-74
2022/05/30 00:48:47;;;;;;;1999.90;999.90;;;10.50;97.40;;;;;;4970327;28;20055;-71
2022/05/30 00:51:17;;;;;;;1999.90;999.90;;;10.50;97.50;;;;;;4966364;28;20376;-74
2022/05/30 00:53:46;;;;;;;1999.90;999.90;;;10.50;97.60;;;;;;4958395;28;20016;-74
2022/05/30 00:56:13;;;;;;;1999.90;999.90;;;10.50;97.70;;;;;;4972899;28;20109;-74
2022/05/30 00:58:46;;;;;;;1999.90;999.90;;;10.40;97.70;;;;;;4958925;28;20380;-74
2022/05/30 01:01:13;;;;;;;1999.90;999.90;;;10.40;97.80;;;;;;4957298;28;20031;-72
2022/05/30 01:06:31;;;;;;;1999.90;999.90;;;10.30;97.90;;;;;;4969980;28;20090;-74
2022/05/30 01:09:07;;;;;;;1999.90;999.90;;;10.30;97.90;;;;;;4966236;28;20134;-73
2022/05/30 01:11:58;;;;;;;1999.90;999.90;;;10.40;98.00;;;;;;4970867;28;20397;-74
2022/05/30 01:14:50;;;;;;;1999.90;999.90;;;10.40;98.00;;;;;;4973530;28;20082;-74
2022/05/30 01:17:16;;;;;;;1999.90;999.90;;;10.40;98.10;;;;;;4960975;28;20074;-74
2022/05/30 01:19:56;;;;;;;1999.90;999.90;;;10.30;98.20;;;;;;4958123;28;20063;-74
2022/05/30 01:22:42;;;;;;;1999.90;999.90;;;10.30;98.50;;;;;;4974047;28;20062;-73
2022/05/30 01:25:56;;;;;;;1999.90;999.90;;;10.20;98.60;;;;;;4974206;28;20023;-74
2022/05/30 01:28:50;;;;;;;1999.90;999.90;;;10.20;98.90;;;;;;4934508;28;20045;-74
2022/05/30 01:31:16;;;;;;;1999.90;999.90;;;10.10;99.10;;;;;;4982199;28;20024;-73
2022/05/30 01:33:42;;;;;;;1999.90;999.90;;;10.00;99.30;;;;;;4973729;28;20042;-71
2022/05/30 01:36:08;;;;;;;1999.90;999.90;;;10.00;99.50;;;;;;4955785;28;20389;-71
2022/05/30 01:38:34;;;;;;;1999.90;999.90;;;9.90;99.70;;;;;;4963569;28;20077;-71
2022/05/30 01:41:00;;;;;;;1999.90;999.90;;;9.80;99.90;;;;;;4971988;28;20030;-74
2022/05/30 01:43:26;;;;;;;1999.90;999.90;;;9.70;99.90;;;;;;4965168;28;20114;-73
2022/05/30 01:45:52;;;;;;;1999.90;999.90;;;9.70;99.90;;;;;;4967977;28;20487;-74
2022/05/30 01:48:18;;;;;;;1999.90;999.90;;;9.70;99.90;;;;;;4966068;28;20185;-71
2022/05/30 01:50:45;;;;;;;1999.90;999.90;;;9.60;99.90;;;;;;4973557;28;20023;-71
2022/05/30 01:53:11;;;;;;;1999.90;999.90;;;9.60;99.90;;;;;;4955490;28;20024;-71
2022/05/30 01:55:37;;;;;;;1999.90;999.90;;;9.60;99.90;;;;;;4971846;28;20154;-74
2022/05/30 01:58:04;;;;;;;1999.90;999.90;;;9.60;99.90;;;;;;4953395;28;20468;-74
2022/05/30 02:00:31;;;;;;;1999.90;999.90;;;9.60;99.90;;;;;;4973529;28;20023;-74
2022/05/30 02:02:57;;;;;;;1999.90;999.90;;;9.60;99.90;;;;;;4975398;28;20031;-71
2022/05/30 02:05:22;;;;;;;1999.90;999.90;;;9.60;99.90;;;;;;4972531;28;20528;-74
2022/05/30 02:07:48;;;;;;;1999.90;999.90;;;9.60;99.90;;;;;;4971070;28;20027;-74
2022/05/30 02:10:14;;;;;;;1999.90;999.90;;;9.60;99.90;;;;;;4977622;28;20557;-72
2022/05/30 02:12:39;;;;;;;1999.90;999.90;;;9.60;99.90;;;;;;4977953;28;20046;-74
2022/05/30 02:15:06;;;;;;;1999.90;999.90;;;9.60;99.90;;;;;;4978294;28;20023;-71
2022/05/30 02:17:35;;;;;;;1999.90;999.90;;;9.60;99.90;;;;;;4966364;28;20075;-74
2022/05/30 02:20:01;;;;;;;1999.90;999.90;;;9.60;99.90;;;;;;4976626;28;20031;-74
2022/05/30 02:22:29;;;;;;;1999.90;999.90;;;9.60;99.90;;;;;;4977223;28;20147;-74
2022/05/30 02:24:56;;;;;;;1999.90;999.90;;;9.60;99.90;;;;;;4977625;28;20434;-74
2022/05/30 02:27:22;;;;;;;1999.90;999.90;;;9.60;99.90;;;;;;4973234;28;20027;-74
2022/05/30 02:29:48;;;;;;;1999.90;999.90;;;9.60;99.90;;;;;;4977184;28;20556;-71
2022/05/30 02:32:14;;;;;;;1999.90;999.90;;;9.60;99.90;;;;;;4977257;28;20023;-74
2022/05/30 02:37:24;;;;;;;1999.90;999.90;;;9.50;99.90;;;;;;4975305;28;20041;-74
2022/05/30 02:39:50;;;;;;;1999.90;999.90;;;9.50;99.90;;;;;;4967287;28;20031;-74
2022/05/30 02:42:15;;;;;;;1999.90;999.90;;;9.50;99.90;;;;;;4977205;28;20041;-74
2022/05/30 02:44:41;;;;;;;1999.90;999.90;;;9.50;99.90;;;;;;4957638;28;20042;-74
2022/05/30 02:47:10;;;;;;;1999.90;999.90;;;9.50;99.90;;;;;;4947928;28;20051;-74
2022/05/30 02:49:36;;;;;;;1999.90;999.90;;;9.50;99.90;;;;;;4977147;28;20098;-74
2022/05/30 02:52:02;;;;;;;1999.90;999.90;;;9.50;99.90;;;;;;4962510;28;20055;-72
2022/05/30 02:54:28;;;;;;;1999.90;999.90;;;9.50;99.90;;;;;;4950109;28;20446;-73
2022/05/30 02:56:56;;;;;;;1999.90;999.90;;;9.50;99.90;;;;;;4972323;28;20066;-74
2022/05/30 02:59:22;;;;;;;1999.90;999.90;;;9.40;99.90;;;;;;4976738;28;20114;-74
2022/05/30 03:01:48;;;;;;;1999.90;999.90;;;9.40;99.90;;;;;;4976735;28;20034;-74
2022/05/30 03:04:15;;;;;;;1999.90;999.90;;;9.40;99.90;;;;;;4976776;28;20041;-72
2022/05/30 03:06:42;;;;;;;1999.90;999.90;;;9.40;99.90;;;;;;4963676;28;20027;-72
2022/05/30 03:09:08;;;;;;;1999.90;999.90;;;9.30;99.90;;;;;;4976800;28;20047;-74
2022/05/30 03:11:34;;;;;;;1999.90;999.90;;;9.30;99.90;;;;;;4976549;28;20024;-74
2022/05/30 03:14:00;;;;;;;1999.90;999.90;;;9.30;99.90;;;;;;4976830;28;20027;-74
2022/05/30 03:16:26;;;;;;;1999.90;999.90;;;9.20;99.90;;;;;;4973975;28;20033;-74
2022/05/30 03:18:51;;;;;;;1999.90;999.90;;;9.20;99.90;;;;;;4966771;28;20106;-72
2022/05/30 03:21:17;;;;;;;1999.90;999.90;;;9.20;99.90;;;;;;4975878;28;20023;-74
2022/05/30 03:23:43;;;;;;;1999.90;999.90;;;9.10;99.90;;;;;;4976835;28;20038;-74
2022/05/30 03:26:09;;;;;;;1999.90;999.90;;;9.10;99.90;;;;;;4976300;28;20030;-74
2022/05/30 03:28:36;;;;;;;1999.90;999.90;;;9.10;99.90;;;;;;4973910;28;20101;-71
2022/05/30 03:31:03;;;;;;;1999.90;999.90;;;9.00;99.90;;;;;;4975591;28;20023;-71
2022/05/30 03:33:29;;;;;;;1999.90;999.90;;;9.00;99.90;;;;;;4976237;28;20049;-71
2022/05/30 03:35:55;;;;;;;1999.90;999.90;;;8.90;99.90;;;;;;4958782;28;20019;-74
2022/05/30 03:38:21;;;;;;;1999.90;999.90;;;8.90;99.90;;;;;;4966973;28;20027;-72
2022/05/30 03:40:47;;;;;;;1999.90;999.90;;;8.90;99.90;;;;;;4972525;28;20038;-72
2022/05/30 03:43:13;;;;;;;1999.90;999.90;;;8.90;99.90;;;;;;4972449;28;20545;-72
2022/05/30 03:45:44;;;;;;;1999.90;999.90;;;8.90;99.90;;;;;;4970097;28;20039;-74
2022/05/30 03:48:12;;;;;;;1999.90;999.90;;;8.90;99.90;;;;;;4967204;28;20061;-74
2022/05/30 03:50:39;;;;;;;1999.90;999.90;;;8.90;99.90;;;;;;4971980;28;20034;-74
2022/05/30 03:53:06;;;;;;;1999.90;999.90;;;8.80;99.90;;;;;;4957464;28;20028;-72
2022/05/30 03:55:42;;;;;;;1999.90;999.90;;;8.80;99.90;;;;;;4973268;28;20486;-74
2022/05/30 03:58:09;;;;;;;1999.90;999.90;;;8.80;99.90;;;;;;4973361;28;20057;-72
2022/05/30 04:00:36;;;;;;;1999.90;999.90;;;8.80;99.90;;;;;;4975001;28;20081;-74
2022/05/30 04:03:04;;;;;;;1999.90;999.90;;;8.70;99.90;;;;;;4975646;28;20066;-74
2022/05/30 04:05:30;;;;;;;1999.90;999.90;;;8.70;99.90;;;;;;4951154;29;20082;-74
2022/05/30 04:07:57;;;;;;;1999.90;999.90;;;8.60;99.90;;;;;;4963415;28;20019;-71
2022/05/30 04:10:23;;;;;;;1999.90;999.90;;;8.70;99.90;;;;;;4975545;28;20054;-71
2022/05/30 04:12:50;;;;;;;1999.90;999.90;;;8.60;99.90;;;;;;4975414;28;20034;-71
2022/05/30 04:15:19;;;;;;;1999.90;999.90;;;8.60;99.90;;;;;;4968066;28;20028;-74
2022/05/30 04:17:45;;;;;;;1999.90;999.90;;;8.50;99.90;;;;;;4957175;28;20027;-73
2022/05/30 04:20:11;;;;;;;1999.90;999.90;;;8.60;99.90;;;;;;4975048;28;20478;-74
2022/05/30 04:22:37;;;;;;;1999.90;999.90;;;8.60;99.90;;;;;;4975428;28;20027;-72
2022/05/30 04:25:03;;;;;;;1999.90;999.90;;;8.60;99.90;;;;;;4975089;28;20046;-74
2022/05/30 04:27:28;;;;;;;1999.90;999.90;;;8.60;99.90;;;;;;4974876;28;20054;-74
2022/05/30 04:29:54;;;;;;;1999.90;999.90;;;8.60;99.90;;;;;;4975246;28;20490;-74
2022/05/30 04:32:20;;;;;;;1999.90;999.90;;;8.60;99.90;;;;;;4974225;28;20027;-74
2022/05/30 04:34:46;;;;;;;1999.90;999.90;;;8.60;99.90;;;;;;4975310;28;20019;-74
2022/05/30 04:37:12;;;;;;;1999.90;999.90;;;8.50;99.90;;;;;;4974313;28;20085;-71
2022/05/30 04:39:37;;;;;;;1999.90;999.90;;;8.60;99.90;;;;;;4962296;28;20026;-74
2022/05/30 04:42:04;;;;;;;1999.90;999.90;;;8.50;99.90;;;;;;4975190;28;20031;-74
2022/05/30 04:44:31;;;;;;;1999.90;999.90;;;8.50;99.90;;;;;;4946838;28;20439;-74
2022/05/30 04:46:58;;;;;;;1999.90;999.90;;;8.50;99.90;;;;;;4961450;28;20074;-74
2022/05/30 04:49:25;;;;;;;1999.90;999.90;;;8.50;99.90;;;;;;4975183;28;20530;-72
2022/05/30 04:51:51;;;;;;;1999.90;999.90;;;8.60;99.90;;;;;;4961687;28;20494;-72
2022/05/30 04:54:17;;;;;;;1999.90;999.90;;;8.60;99.90;;;;;;4949352;28;20030;-72
2022/05/30 04:56:43;;;;;;;1999.90;999.90;;;8.60;99.90;;;;;;4959732;28;20027;-73
2022/05/30 04:59:10;;;;;;;1999.90;999.90;;;8.70;99.90;;;;;;4973073;28;20038;-74
2022/05/30 05:01:36;;;;;;;1999.90;999.90;;;8.70;99.90;;;;;;4974245;28;20102;-74
2022/05/30 05:04:06;;;;;;;1999.90;999.90;;;8.70;99.90;;;;;;4974020;28;20027;-74
2022/05/30 05:06:32;;;;;;;1999.90;999.90;;;8.80;99.90;;;;;;4961202;28;20395;-72
2022/05/30 05:09:05;;;;;;;1999.90;999.90;;;8.80;99.90;;;;;;4963104;28;20019;-72
2022/05/30 05:11:33;;;;;;;1999.90;999.90;;;8.80;99.90;;;;;;4957370;28;20128;-72
2022/05/30 05:13:59;;;;;;;1999.90;999.90;;;8.90;99.90;;;;;;4965951;28;20425;-74
2022/05/30 05:16:28;;;;;;;1999.90;999.90;;;8.90;99.90;;;;;;4959279;28;20441;-74
2022/05/30 05:18:54;;;;;;;1999.90;999.90;;;8.90;99.90;;;;;;4964426;28;20031;-74
2022/05/30 05:21:26;;;;;;;1999.90;999.90;;;9.00;99.90;;;;;;4966615;28;20097;-74
2022/05/30 05:23:52;;;;;;;1999.90;999.90;;;9.10;99.90;;;;;;4974364;28;20027;-74
2022/05/30 05:26:19;;;;;;;1999.90;999.90;;;9.10;99.90;;;;;;4962152;28;20027;-72
2022/05/30 05:28:46;;;;;;;1999.90;999.90;;;9.20;99.90;;;;;;4964572;28;20029;-72
2022/05/30 05:31:24;;;;;;;1999.90;999.90;;;9.10;99.90;;;;;;4939801;28;20054;-72
2022/05/30 05:33:51;;;;;;;1999.90;999.90;;;9.20;99.90;;;;;;4957915;28;20028;-74
2022/05/30 05:36:25;;;;;;;1999.90;999.90;;;9.30;99.90;;;;;;4966686;28;20065;-74
2022/05/30 05:38:50;;;;;;;1999.90;999.90;;;9.30;99.90;;;;;;4960388;28;20175;-75
2022/05/30 05:41:17;;;;;;;1999.90;999.90;;;9.40;99.90;;;;;;4954328;28;20559;-73
2022/05/30 05:43:42;;;;;;;1999.90;999.90;;;9.40;99.90;;;;;;4954047;28;20027;-72
2022/05/30 05:46:20;;;;;;;1999.90;999.90;;;9.50;99.90;;;;;;4966380;28;20034;-72
2022/05/30 05:48:45;;;;;;;1999.90;999.90;;;9.50;99.90;;;;;;4960125;28;20070;-74
2022/05/30 05:51:13;;;;;;;1999.90;999.90;;;9.70;99.90;;;;;;4960111;28;20581;-74
2022/05/30 05:53:40;;;;;;;1999.90;999.90;;;9.80;99.90;;;;;;4956282;28;20107;-74
2022/05/30 05:56:14;;;;;;;1999.90;999.90;;;9.90;99.90;;;;;;4969313;28;20023;-73
2022/05/30 05:58:40;;;;;;;1999.90;999.90;;;10.00;99.90;;;;;;4970743;28;20085;-74
2022/05/30 06:01:13;;;;;;;1999.90;999.90;;;10.10;99.90;;;;;;4973365;28;20031;-75
2022/05/30 06:03:38;;;;;;;1999.90;999.90;;;10.20;99.90;;;;;;4962281;28;20027;-74
2022/05/30 06:06:05;;;;;;;1999.90;999.90;;;10.30;99.90;;;;;;4951546;28;20058;-74
2022/05/30 06:08:32;;;;;;;1999.90;999.90;;;10.40;99.90;;;;;;4952660;28;20505;-72
2022/05/30 06:11:11;;;;;;;1999.90;999.90;;;10.50;99.90;;;;;;4965104;28;20015;-74
2022/05/30 06:13:38;;;;;;;1999.90;999.90;;;10.60;99.90;;;;;;4970157;28;20434;-74
2022/05/30 06:16:11;;;;;;;1999.90;999.90;;;10.80;99.90;;;;;;4965206;28;20026;-74
2022/05/30 06:18:40;;;;;;;1999.90;999.90;;;11.00;99.90;;;;;;4951409;28;20500;-74
2022/05/30 06:21:06;;;;;;;1999.90;999.90;;;11.10;99.90;;;;;;4965033;28;20027;-72
2022/05/30 06:23:32;;;;;;;1999.90;999.90;;;11.30;99.90;;;;;;4961332;28;20031;-74
2022/05/30 06:26:01;;;;;;;1999.90;999.90;;;11.40;99.90;;;;;;4944880;28;20517;-74
2022/05/30 06:28:28;;;;;;;1999.90;999.90;;;11.50;99.90;;;;;;4963473;28;20019;-74
2022/05/30 06:30:54;;;;;;;1999.90;999.90;;;11.60;99.90;;;;;;4948712;28;20409;-74
2022/05/30 06:33:20;;;;;;;1999.90;999.90;;;11.70;99.90;;;;;;4954528;28;20027;-72
2022/05/30 06:35:45;;;;;;;1999.90;999.90;;;11.90;99.90;;;;;;4950957;28;20102;-72
2022/05/30 06:38:12;;;;;;;1999.90;999.90;;;12.00;99.90;;;;;;4951816;28;20118;-74
2022/05/30 06:40:38;;;;;;;1999.90;999.90;;;12.10;99.90;;;;;;4954101;28;20458;-74
2022/05/30 06:43:04;;;;;;;1999.90;999.90;;;12.20;99.90;;;;;;4963898;28;20038;-74
2022/05/30 06:45:31;;;;;;;1999.90;999.90;;;12.30;99.90;;;;;;4960632;28;20037;-72
2022/05/30 06:47:57;;;;;;;1999.90;999.90;;;12.50;99.90;;;;;;4951855;28;20138;-72
2022/05/30 06:50:23;;;;;;;1999.90;999.90;;;12.70;99.90;;;;;;4955941;28;20038;-74
2022/05/30 06:52:48;;;;;;;1999.90;999.90;;;12.80;99.90;;;;;;4955078;28;20039;-74
2022/05/30 06:55:14;;;;;;;1999.90;999.90;;;12.90;99.90;;;;;;4966946;28;21724;-74
2022/05/30 07:00:24;;;;;;;1999.90;999.90;;;13.30;99.90;;;;;;4960474;28;20038;-71
2022/05/30 07:02:51;;;;;;;1999.90;999.90;;;13.50;99.90;;;;;;4965821;28;20469;-74
2022/05/30 07:05:17;;;;;;;1999.90;999.90;;;13.60;99.90;;;;;;4958044;28;20034;-74
2022/05/30 07:07:44;;;;;;;1999.90;999.90;;;13.70;99.90;;;;;;4946533;29;20035;-74
2022/05/30 07:10:11;;;;;;;1999.90;999.90;;;13.80;99.90;;;;;;4954848;28;20605;-74
2022/05/30 07:12:37;;;;;;;1999.90;999.90;;;13.90;99.90;;;;;;4951418;28;20424;-73
2022/05/30 07:15:03;;;;;;;1999.90;999.90;;;14.10;99.60;;;;;;4938330;28;20027;-72
2022/05/30 07:17:29;;;;;;;1999.90;999.90;;;14.20;99.40;;;;;;4951720;28;20062;-75
2022/05/30 07:19:57;;;;;;;1999.90;999.90;;;14.30;98.90;;;;;;4956437;28;20473;-74
2022/05/30 07:22:22;;;;;;;1999.90;999.90;;;14.30;98.80;;;;;;4954318;28;20042;-75
2022/05/30 07:24:48;;;;;;;1999.90;999.90;;;14.40;98.70;;;;;;4965538;28;20474;-72
2022/05/30 07:27:13;;;;;;;1999.90;999.90;;;14.70;98.70;;;;;;4961252;28;20031;-72
2022/05/30 07:29:39;;;;;;;1999.90;999.90;;;14.90;97.90;;;;;;4946700;28;20022;-74
2022/05/30 07:32:05;;;;;;;1999.90;999.90;;;15.50;97.20;;;;;;4961798;28;20026;-75
2022/05/30 07:34:31;;;;;;;1999.90;999.90;;;17.30;95.60;;;;;;4963582;28;20030;-75
2022/05/30 07:37:00;;;;;;;1999.90;999.90;;;19.90;91.60;;;;;;4958506;28;20035;-77
2022/05/30 07:39:26;;;;;;;1999.90;999.90;;;21.40;87.60;;;;;;4940701;28;20062;-73
2022/05/30 07:41:52;;;;;;;1999.90;999.90;;;22.70;83.70;;;;;;4957612;28;20086;-73
2022/05/30 07:44:18;;;;;;;1999.90;999.90;;;23.60;80.20;;;;;;4962261;28;20019;-78
2022/05/30 07:46:45;;;;;;;1999.90;999.90;;;23.90;79.70;;;;;;4954784;28;20090;-78
2022/05/30 07:49:12;;;;;;;1999.90;999.90;;;24.50;78.20;;;;;;4965740;28;20120;-78
2022/05/30 07:51:38;;;;;;;1999.90;999.90;;;24.60;77.10;;;;;;4937164;29;20039;-74
2022/05/30 07:54:04;;;;;;;1999.90;999.90;;;24.70;76.00;;;;;;4958523;28;20031;-75
2022/05/30 07:56:30;;;;;;;1999.90;999.90;;;25.30;75.50;;;;;;4953777;28;20035;-79
2022/05/30 07:58:56;;;;;;;1999.90;999.90;;;25.60;74.50;;;;;;4960439;28;20153;-78
2022/05/30 08:01:22;;;;;;;1999.90;999.90;;;26.00;73.40;;;;;;4961214;28;20460;-78
2022/05/30 08:03:51;;;;;;;1999.90;999.90;;;26.30;72.60;;;;;;4966537;28;20031;-74
2022/05/30 08:06:23;;;;;;;1999.90;999.90;;;26.40;72.10;;;;;;4953613;28;20080;-74
2022/05/30 08:08:50;;;;;;;1999.90;999.90;;;26.90;71.70;;;;;;4936395;28;20031;-78
2022/05/30 08:11:17;;;;;;;1999.90;999.90;;;27.50;71.10;;;;;;4956902;28;20518;-79
2022/05/30 08:13:45;;;;;;;1999.90;999.90;;;27.70;69.10;;;;;;4934326;28;20031;-78
2022/05/30 08:16:12;;;;;;;1999.90;999.90;;;27.60;68.90;;;;;;4960804;28;20055;-74
2022/05/30 08:18:38;;;;;;;1999.90;999.90;;;27.80;68.40;;;;;;4952692;28;20043;-74
2022/05/30 08:21:04;;;;;;;1999.90;999.90;;;28.40;67.50;;;;;;4958193;28;20033;-78
2022/05/30 08:23:30;;;;;;;1999.90;999.90;;;28.40;67.10;;;;;;4953279;28;20429;-79
2022/05/30 08:25:56;;;;;;;1999.90;999.90;;;28.80;67.00;;;;;;4957055;28;20023;-79
2022/05/30 08:28:22;;;;;;;1999.90;999.90;;;29.10;66.50;;;;;;4953551;29;20545;-74
2022/05/30 08:30:48;;;;;;;1999.90;999.90;;;29.60;66.30;;;;;;4953870;28;20026;-74
2022/05/30 08:33:18;;;;;;;1999.90;999.90;;;29.20;65.50;;;;;;4956288;28;20042;-77
2022/05/30 08:35:45;;;;;;;1999.90;999.90;;;29.70;65.30;;;;;;4959549;28;20130;-77
2022/05/30 08:38:12;;;;;;;1999.90;999.90;;;29.50;63.90;;;;;;4952778;29;20598;-77
2022/05/30 08:43:27;;;;;;;1999.90;999.90;;;30.00;64.10;;;;;;4952454;29;20082;-72
2022/05/30 08:46:16;;;;;;;1999.90;999.90;;;30.00;62.90;;;;;;4953190;29;20027;-72
2022/05/30 08:48:46;;;;;;;1999.90;999.90;;;29.70;63.60;;;;;;4883316;29;20047;-77
2022/05/30 08:51:23;;;;;;;1999.90;999.90;;;29.90;62.10;;;;;;4914952;29;20028;-72
2022/05/30 08:54:29;;;;;;;1999.90;999.90;;;29.50;62.60;;;;;;4913180;29;20759;-78
2022/05/30 08:56:58;;;;;;;1999.90;999.90;;;29.10;63.50;;;;;;4919654;29;20460;-72
2022/05/30 08:59:46;;;;;;;1999.90;999.90;;;30.00;61.80;;;;;;4913032;29;20074;-75
2022/05/30 09:02:15;;;;;;;1999.90;999.90;;;30.30;61.60;;;;;;4928161;29;20059;-75
2022/05/30 09:05:00;;;;;;;1999.90;999.90;;;31.00;62.00;;;;;;4912847;29;20032;-79
2022/05/30 09:07:30;;;;;;;1999.90;999.90;;;30.60;61.10;;;;;;4912890;29;20032;-79
2022/05/30 09:10:02;;;;;;;1999.90;999.90;;;29.10;60.60;;;;;;4912120;29;20376;-72
2022/05/30 09:12:50;;;;;;;1999.90;999.90;;;27.10;61.50;;;;;;4908550;29;20155;-72
2022/05/30 09:15:23;;;;;;;1999.90;999.90;;;28.40;62.10;;;;;;4915557;29;20502;-79
2022/05/30 09:18:03;;;;;;;1999.90;999.90;;;29.00;59.20;;;;;;4913682;29;20036;-79
2022/05/30 09:20:31;;;;;;;1999.90;999.90;;;29.70;59.90;;;;;;4921766;29;20110;-80
2022/05/30 09:22:57;;;;;;;1999.90;999.90;;;29.90;59.70;;;;;;4920760;29;20394;-73
2022/05/30 09:28:15;;;;;;;1999.90;999.90;;;30.00;60.30;;;;;;4914162;29;20392;-79
2022/05/30 09:31:20;;;;;;;1999.90;999.90;;;30.70;58.90;;;;;;4925396;29;20032;-79
2022/05/30 09:33:58;;;;;;;1999.90;999.90;;;30.10;58.60;;;;;;4864910;29;20514;-79
2022/05/30 09:36:27;;;;;;;1999.90;999.90;;;29.90;59.10;;;;;;4916090;29;20051;-73
2022/05/30 09:39:02;;;;;;;1999.90;999.90;;;30.90;58.30;;;;;;4916151;29;20028;-80
2022/05/30 09:41:46;;;;;;;1999.90;999.90;;;30.70;58.40;;;;;;4914828;29;20028;-79
2022/05/30 09:44:18;;;;;;;1999.90;999.90;;;29.90;58.00;;;;;;4911803;29;20472;-78
2022/05/30 09:46:52;;;;;;;1999.90;999.90;;;29.30;58.80;;;;;;4916014;29;20043;-80
2022/05/30 09:49:41;;;;;;;1999.90;999.90;;;29.30;58.60;;;;;;4954072;28;20023;-72
2022/05/30 09:52:25;;;;;;;1999.90;999.90;;;28.40;58.80;;;;;;4951221;28;20491;-79
2022/05/30 09:54:53;;;;;;;1999.90;999.90;;;27.70;59.20;;;;;;4950966;28;20047;-72
2022/05/30 09:57:28;;;;;;;1999.90;999.90;;;28.30;59.10;;;;;;4960756;28;20445;-77
2022/05/30 09:59:57;;;;;;;1999.90;999.90;;;29.50;58.60;;;;;;4946584;28;20387;-78
2022/05/30 10:02:32;;;;;;;1999.90;999.90;;;30.30;58.00;;;;;;4955486;28;20027;-73
2022/05/30 10:05:21;;;;;;;1999.90;999.90;;;30.30;56.90;;;;;;4960045;28;20038;-80
2022/05/30 10:07:54;;;;;;;1999.90;999.90;;;30.90;57.40;;;;;;4955175;28;20038;-73
2022/05/30 10:10:37;;;;;;;1999.90;999.90;;;30.80;57.60;;;;;;4958181;28;20531;-79
2022/05/30 10:13:09;;;;;;;1999.90;999.90;;;30.70;57.20;;;;;;4961863;28;20114;-79
2022/05/30 10:15:39;;;;;;;1999.90;999.90;;;30.90;56.80;;;;;;4957956;28;20023;-73
2022/05/30 10:18:10;;;;;;;1999.90;999.90;;;30.40;56.80;;;;;;4953903;29;20023;-80
2022/05/30 10:21:07;;;;;;;1999.90;999.90;;;30.30;57.20;;;;;;4953388;29;20497;-80
2022/05/30 10:30:07;;;;;;;1999.90;999.90;;;30.80;56.60;;;;;;4959199;28;20042;-72
2022/05/30 10:32:47;;;;;;;1999.90;999.90;;;30.60;57.90;;;;;;4967446;28;20026;-79
2022/05/30 10:35:45;;;;;;;1999.90;999.90;;;30.00;56.80;;;;;;4964764;28;20173;-79
2022/05/30 10:38:20;;;;;;;1999.90;999.90;;;30.80;57.60;;;;;;4932905;28;20039;-80
2022/05/30 10:41:08;;;;;;;1999.90;999.90;;;31.10;57.50;;;;;;4967648;28;20034;-72
2022/05/30 10:43:46;;;;;;;1999.90;999.90;;;31.30;57.00;;;;;;4957634;28;20038;-79
2022/05/30 10:46:39;;;;;;;1999.90;999.90;;;31.10;56.50;;;;;;4962802;28;20030;-72
2022/05/30 10:49:09;;;;;;;1999.90;999.90;;;30.70;57.10;;;;;;4960542;28;20491;-80
2022/05/30 10:52:05;;;;;;;1999.90;999.90;;;31.10;57.40;;;;;;4964127;28;20019;-80
2022/05/30 10:54:53;;;;;;;1999.90;999.90;;;30.30;56.20;;;;;;4961665;28;20031;-73
2022/05/30 10:57:25;;;;;;;1999.90;999.90;;;30.80;56.20;;;;;;4947878;28;20026;-81
2022/05/30 11:16:54;;;;;;;1999.90;999.90;;;30.10;56.10;;;;;;5580830;23;20059;-81
2022/05/30 11:27:36;;;;;;;1999.90;999.90;;;28.70;58.20;;;;;;4948152;28;20055;-80
2022/05/30 11:30:39;;;;;;;1999.90;999.90;;;29.10;56.50;;;;;;4953215;28;20027;-80
2022/05/30 11:33:13;;;;;;;1999.90;999.90;;;29.20;57.10;;;;;;4951644;29;20070;-81
2022/05/30 11:35:54;;;;;;;1999.90;999.90;;;29.00;57.00;;;;;;4935751;29;20486;-81
2022/05/30 11:38:44;;;;;;;1999.90;999.90;;;28.10;57.30;;;;;;4954724;28;20027;-81
2022/05/30 11:41:42;;;;;;;1999.90;999.90;;;28.30;56.50;;;;;;4933882;28;20042;-80
2022/05/30 11:45:02;;;;;;;1999.90;999.90;;;28.30;58.20;;;;;;4951042;28;20098;-79
2022/05/30 11:47:35;;;;;;;1999.90;999.90;;;29.30;58.30;;;;;;4899046;29;20036;-76
2022/05/30 11:50:25;;;;;;;1999.90;999.90;;;29.00;57.50;;;;;;4914648;29;20497;-80
2022/05/30 11:53:29;;;;;;;1999.90;999.90;;;28.70;58.40;;;;;;4899563;29;20088;-80
2022/05/30 11:56:13;;;;;;;1999.90;999.90;;;28.30;57.20;;;;;;4892969;29;20060;-77
2022/05/30 11:59:03;;;;;;;1999.90;999.90;;;28.20;57.10;;;;;;4916772;29;20036;-81
2022/05/30 12:01:31;;;;;;;1999.90;999.90;;;27.90;56.60;;;;;;4911795;29;20052;-78
2022/05/30 12:04:11;;;;;;;1999.90;999.90;;;27.90;59.10;;;;;;4913996;29;20036;-78
2022/05/30 12:06:39;;;;;;;1999.90;999.90;;;28.30;57.00;;;;;;4927418;29;20064;-79
2022/05/30 12:09:32;;;;;;;1999.90;999.90;;;28.80;57.80;;;;;;4923128;29;20487;-85
2022/05/30 12:12:09;;;;;;;1999.90;999.90;;;28.10;56.90;;;;;;4931927;29;20064;-84
2022/05/30 12:14:56;;;;;;;1999.90;999.90;;;28.00;58.10;;;;;;4893995;29;20040;-83
2022/05/30 12:24:15;;;;;;;1999.90;999.90;;;28.90;57.00;;;;;;4964295;28;20091;-83
2022/05/30 12:26:49;;;;;;;1999.90;999.90;;;28.20;57.10;;;;;;4968007;29;20142;-79
2022/05/30 12:29:39;;;;;;;1999.90;999.90;;;28.30;57.60;;;;;;4966182;29;20055;-83
2022/05/30 12:32:20;;;;;;;1999.90;999.90;;;27.60;57.50;;;;;;4956916;29;20089;-85
2022/05/30 12:34:58;;;;;;;1999.90;999.90;;;28.20;57.90;;;;;;4959300;28;20026;-77
2022/05/30 12:37:43;;;;;;;1999.90;999.90;;;27.30;57.80;;;;;;4954708;28;20122;-77
2022/05/30 12:40:26;;;;;;;1999.90;999.90;;;28.30;58.30;;;;;;4954058;28;20478;-79
2022/05/30 12:43:07;;;;;;;1999.90;999.90;;;27.90;57.30;;;;;;4930709;29;20027;-82
2022/05/30 12:45:38;;;;;;;1999.90;999.90;;;27.80;57.10;;;;;;4936507;29;20039;-82
2022/05/30 12:48:16;;;;;;;1999.90;999.90;;;27.60;57.00;;;;;;4930158;29;20036;-81
2022/05/30 12:50:51;;;;;;;1999.90;999.90;;;27.90;56.30;;;;;;4952774;29;20024;-77
2022/05/30 12:53:19;;;;;;;1999.90;999.90;;;27.50;56.50;;;;;;4957172;28;20042;-81
2022/05/30 12:55:51;;;;;;;1999.90;999.90;;;27.10;57.80;;;;;;4944638;29;20457;-83
2022/05/30 12:58:34;;;;;;;1999.90;999.90;;;26.80;58.30;;;;;;4942852;28;20536;-82
2022/05/30 13:01:25;;;;;;;;;;;26.60;58.20;;;;;;4936088;29;20031;-82
2022/05/30 13:04:16;;;;;;;1999.90;999.90;;;26.60;59.80;;;;;;4955109;28;19909;-77
2022/05/30 13:07:04;;;;;;;1999.90;999.90;;;26.50;59.30;;;;;;4958452;28;20037;-77
2022/05/30 13:09:43;;;;;;;1999.90;999.90;;;26.30;59.80;;;;;;4943968;28;20090;-84
2022/05/30 13:12:11;;;;;;;1999.90;999.90;;;26.00;59.80;;;;;;4943255;28;20030;-81
2022/05/30 13:14:39;;;;;;;1999.90;999.90;;;26.00;59.20;;;;;;4951207;28;20042;-78